createdAt,value
2023-01-26T00:01:30.926Z,6.80
2023-01-26T00:03:58.666Z,6.80
2023-01-26T00:06:26.579Z,6.90
2023-01-26T00:08:56.795Z,6.80
2023-01-26T00:11:27.379Z,6.80
2023-01-26T00:13:56.077Z,6.80
2023-01-26T00:16:23.919Z,6.90
2023-01-26T00:18:51.264Z,6.90
2023-01-26T00:21:21.113Z,6.90
2023-01-26T00:23:49.765Z,6.90
2023-01-26T00:26:19.769Z,6.80
2023-01-26T00:28:47.723Z,6.90
2023-01-26T00:31:17.644Z,6.80
2023-01-26T00:33:44.919Z,6.80
2023-01-26T00:36:12.803Z,6.80
2023-01-26T00:38:40.868Z,6.80
2023-01-26T00:41:10.216Z,6.80
2023-01-26T00:43:37.439Z,6.80
2023-01-26T00:46:04.867Z,6.80
2023-01-26T00:48:32.197Z,6.80
2023-01-26T00:51:00.510Z,6.90
2023-01-26T00:53:28.011Z,6.80
2023-01-26T00:55:58.235Z,6.90
2023-01-26T00:58:25.803Z,6.90
2023-01-26T01:00:54.143Z,6.90
2023-01-26T01:03:21.320Z,6.90
2023-01-26T01:05:48.705Z,6.90
2023-01-26T01:08:15.813Z,6.90
2023-01-26T01:10:43.006Z,6.90
2023-01-26T01:13:10.381Z,6.90
2023-01-26T01:15:40.377Z,6.90
2023-01-26T01:18:07.548Z,6.90
2023-01-26T01:20:34.984Z,6.90
2023-01-26T01:23:02.912Z,6.90
2023-01-26T01:25:30.165Z,7.00
2023-01-26T01:27:57.422Z,6.90
2023-01-26T01:30:24.824Z,6.90
2023-01-26T01:32:52.345Z,6.90
2023-01-26T01:35:19.571Z,6.90
2023-01-26T01:37:46.893Z,6.90
2023-01-26T01:40:14.612Z,6.90
2023-01-26T01:42:49.999Z,6.90
2023-01-26T01:45:26.353Z,6.90
2023-01-26T01:47:59.371Z,6.80
2023-01-26T01:50:27.647Z,6.80
2023-01-26T01:52:56.476Z,6.80
2023-01-26T01:55:25.754Z,6.80
2023-01-26T01:58:00.265Z,6.80
2023-01-26T02:00:28.651Z,6.80
2023-01-26T02:03:19.693Z,6.70
2023-01-26T02:06:10.974Z,6.70
2023-01-26T02:08:43.460Z,6.70
2023-01-26T02:11:17.266Z,6.70
2023-01-26T02:13:47.562Z,6.70
2023-01-26T02:16:15.597Z,6.70
2023-01-26T02:18:43.831Z,6.70
2023-01-26T02:21:20.153Z,6.60
2023-01-26T02:24:00.341Z,6.60
2023-01-26T02:26:33.316Z,6.60
2023-01-26T02:29:03.019Z,6.60
2023-01-26T02:31:31.556Z,6.60
2023-01-26T02:33:59.394Z,6.60
2023-01-26T02:36:29.537Z,6.50
2023-01-26T02:39:17.031Z,6.50
2023-01-26T02:42:04.121Z,6.50
2023-01-26T02:44:32.543Z,6.50
2023-01-26T02:46:59.866Z,6.40
2023-01-26T02:49:46.129Z,6.40
2023-01-26T02:52:21.744Z,6.40
2023-01-26T02:55:14.373Z,6.40
2023-01-26T02:57:42.350Z,6.40
2023-01-26T03:00:13.433Z,6.30
2023-01-26T03:02:42.153Z,6.30
2023-01-26T03:05:09.831Z,6.30
2023-01-26T03:07:37.195Z,6.20
2023-01-26T03:10:05.275Z,6.20
2023-01-26T03:12:33.334Z,6.20
2023-01-26T03:15:18.791Z,6.20
2023-01-26T03:17:46.215Z,6.20
2023-01-26T03:20:32.374Z,6.20
2023-01-26T03:23:18.536Z,6.20
2023-01-26T03:26:04.261Z,6.20
2023-01-26T03:28:34.303Z,6.10
2023-01-26T03:31:01.523Z,6.20
2023-01-26T03:33:31.488Z,6.20
2023-01-26T03:35:59.826Z,6.20
2023-01-26T03:38:27.173Z,6.20
2023-01-26T03:41:16.907Z,6.20
2023-01-26T03:44:02.653Z,6.30
2023-01-26T03:46:48.285Z,6.30
2023-01-26T03:49:34.417Z,6.20
2023-01-26T03:52:20.277Z,6.20
2023-01-26T03:55:07.020Z,6.30
2023-01-26T03:57:34.487Z,6.20
2023-01-26T04:00:01.697Z,6.30
2023-01-26T04:02:47.888Z,6.30
2023-01-26T04:05:33.308Z,6.30
2023-01-26T04:08:22.524Z,6.30
2023-01-26T04:10:52.281Z,6.30
2023-01-26T04:13:39.522Z,6.30
2023-01-26T04:16:28.930Z,6.30
2023-01-26T04:19:14.788Z,6.20
2023-01-26T04:21:42.069Z,6.20
2023-01-26T04:24:16.983Z,6.20
2023-01-26T04:26:45.559Z,6.20
2023-01-26T04:29:17.917Z,6.20
2023-01-26T04:31:46.853Z,6.20
2023-01-26T04:34:17.653Z,6.20
2023-01-26T04:36:44.874Z,6.10
2023-01-26T04:39:13.682Z,6.20
2023-01-26T04:41:45.198Z,6.20
2023-01-26T04:44:14.867Z,6.10
2023-01-26T04:46:43.330Z,6.10
2023-01-26T04:49:13.383Z,6.10
2023-01-26T04:51:41.236Z,6.10
2023-01-26T04:54:08.945Z,6.10
2023-01-26T04:56:39.751Z,6.10
2023-01-26T04:59:08.269Z,6.20
2023-01-26T05:01:37.696Z,6.10
2023-01-26T05:04:07.815Z,6.20
2023-01-26T05:06:38.631Z,6.20
2023-01-26T05:09:06.123Z,6.20
2023-01-26T05:11:34.700Z,6.20
2023-01-26T05:14:22.127Z,6.20
2023-01-26T05:17:11.813Z,6.20
2023-01-26T05:19:54.725Z,6.20
2023-01-26T05:23:00.056Z,6.20
2023-01-26T05:25:33.281Z,6.30
2023-01-26T05:28:12.115Z,6.30
2023-01-26T05:30:41.098Z,6.30
2023-01-26T05:33:11.229Z,6.20
2023-01-26T05:35:39.311Z,6.20
2023-01-26T05:38:09.094Z,6.30
2023-01-26T05:40:36.632Z,6.30
2023-01-26T05:43:04.445Z,6.30
2023-01-26T05:45:49.950Z,6.30
2023-01-26T05:48:18.556Z,6.30
2023-01-26T05:50:48.356Z,6.30
2023-01-26T05:53:20.895Z,6.30
2023-01-26T05:55:48.945Z,6.30
2023-01-26T05:58:18.759Z,6.30
2023-01-26T06:00:46.101Z,6.30
2023-01-26T06:03:20.644Z,6.30
2023-01-26T06:05:54.003Z,6.30
2023-01-26T06:08:39.634Z,6.30
2023-01-26T06:11:25.739Z,6.20
2023-01-26T06:14:21.936Z,6.20
2023-01-26T06:16:49.676Z,6.20
2023-01-26T06:19:16.993Z,6.20
2023-01-26T06:21:49.457Z,6.20
2023-01-26T06:24:16.806Z,6.10
2023-01-26T06:26:44.225Z,6.10
2023-01-26T06:29:12.417Z,6.10
2023-01-26T06:31:40.445Z,6.10
2023-01-26T06:34:09.036Z,6.10
2023-01-26T06:36:41.006Z,6.10
2023-01-26T06:39:13.923Z,6.00
2023-01-26T06:41:44.124Z,6.00
2023-01-26T06:44:12.038Z,6.00
2023-01-26T06:46:40.254Z,6.00
2023-01-26T06:49:07.543Z,6.00
2023-01-26T06:51:47.449Z,6.00
2023-01-26T06:54:15.886Z,6.00
2023-01-26T06:57:21.521Z,5.90
2023-01-26T07:00:08.063Z,5.80
2023-01-26T07:03:01.096Z,5.80
2023-01-26T07:05:28.481Z,5.70
2023-01-26T07:07:55.716Z,5.60
2023-01-26T07:10:22.951Z,5.60
2023-01-26T07:12:50.118Z,5.50
2023-01-26T07:15:17.288Z,5.50
2023-01-26T07:17:44.409Z,5.50
2023-01-26T07:20:12.126Z,5.50
2023-01-26T07:22:39.394Z,5.40
2023-01-26T07:25:06.883Z,5.40
2023-01-26T07:27:34.263Z,5.40
2023-01-26T07:30:01.633Z,5.30
2023-01-26T07:32:28.823Z,5.30
2023-01-26T07:34:56.249Z,5.30
2023-01-26T07:37:23.333Z,5.30
2023-01-26T07:39:50.740Z,5.30
2023-01-26T07:42:17.953Z,5.30
2023-01-26T07:44:58.435Z,5.20
2023-01-26T07:47:25.843Z,5.20
2023-01-26T07:49:53.148Z,5.20
2023-01-26T07:52:20.747Z,5.20
2023-01-26T07:54:47.970Z,5.20
2023-01-26T07:57:15.219Z,5.20
2023-01-26T07:59:42.453Z,5.30
2023-01-26T08:02:10.947Z,5.30
2023-01-26T08:04:38.437Z,5.20
2023-01-26T08:07:05.675Z,5.20
2023-01-26T08:09:33.069Z,5.30
2023-01-26T08:12:00.870Z,5.30
2023-01-26T08:14:35.542Z,5.20
2023-01-26T08:17:09.321Z,5.20
2023-01-26T08:19:36.676Z,5.20
2023-01-26T08:22:04.046Z,5.20
2023-01-26T08:24:31.159Z,5.30
2023-01-26T08:26:58.467Z,5.30
2023-01-26T08:29:25.711Z,5.30
2023-01-26T08:31:53.757Z,5.30
2023-01-26T08:34:22.608Z,5.30
2023-01-26T08:36:49.897Z,5.30
2023-01-26T08:39:17.107Z,5.30
2023-01-26T08:41:44.298Z,5.30
2023-01-26T08:44:11.614Z,5.30
2023-01-26T08:46:38.950Z,5.30
2023-01-26T08:49:06.113Z,5.30
2023-01-26T08:51:33.462Z,5.30
2023-01-26T08:54:00.602Z,5.30
2023-01-26T08:56:28.089Z,5.30
2023-01-26T08:58:55.443Z,5.30
2023-01-26T09:01:22.784Z,5.30
2023-01-26T09:03:51.408Z,5.30
2023-01-26T09:06:19.638Z,5.30
2023-01-26T09:08:46.952Z,5.30
2023-01-26T09:11:14.811Z,5.30
2023-01-26T09:13:42.579Z,5.30
2023-01-26T09:16:19.341Z,5.30
2023-01-26T09:18:51.094Z,5.40
2023-01-26T09:21:18.729Z,5.30
2023-01-26T09:23:46.036Z,5.30
2023-01-26T09:26:13.208Z,5.40
2023-01-26T09:28:40.425Z,5.30
2023-01-26T09:31:10.820Z,5.30
2023-01-26T09:33:38.308Z,5.30
2023-01-26T09:36:07.676Z,5.30
2023-01-26T09:38:35.517Z,5.30
2023-01-26T09:41:20.497Z,5.30
2023-01-26T09:44:16.464Z,5.30
2023-01-26T09:47:07.413Z,5.30
2023-01-26T09:49:45.479Z,5.30
2023-01-26T09:52:27.845Z,5.30
2023-01-26T09:55:03.608Z,5.30
2023-01-26T09:57:47.397Z,5.30
2023-01-26T10:00:21.776Z,5.40
2023-01-26T10:03:10.864Z,5.40
2023-01-26T10:06:01.113Z,5.50
2023-01-26T10:09:14.961Z,5.50
2023-01-26T10:11:48.243Z,5.60
2023-01-26T10:14:35.695Z,5.60
2023-01-26T10:17:06.231Z,5.60
2023-01-26T10:19:33.880Z,5.60
2023-01-26T10:22:08.849Z,5.60
2023-01-26T10:24:36.117Z,5.60
2023-01-26T10:27:03.308Z,5.60
2023-01-26T10:29:30.428Z,5.60
2023-01-26T10:31:57.800Z,5.60
2023-01-26T10:34:26.985Z,5.60
2023-01-26T10:37:02.191Z,5.60
2023-01-26T10:39:29.412Z,5.60
2023-01-26T10:41:59.495Z,5.60
2023-01-26T10:44:36.155Z,5.60
2023-01-26T10:47:18.225Z,5.60
2023-01-26T10:49:45.734Z,5.50
2023-01-26T10:52:25.536Z,5.50
2023-01-26T10:55:13.729Z,5.50
2023-01-26T10:57:43.046Z,5.50
2023-01-26T11:00:20.200Z,5.40
2023-01-26T11:03:15.357Z,5.40
2023-01-26T11:05:43.688Z,5.40
2023-01-26T11:08:34.057Z,5.40
2023-01-26T11:11:03.737Z,5.40
2023-01-26T11:13:31.070Z,5.40
2023-01-26T11:16:12.770Z,5.40
2023-01-26T11:18:55.113Z,5.50
2023-01-26T11:21:55.711Z,5.50
2023-01-26T11:24:33.891Z,5.50
2023-01-26T11:27:14.336Z,5.50
2023-01-26T11:29:41.619Z,5.50
2023-01-26T11:32:31.008Z,5.50
2023-01-26T11:35:29.152Z,5.50
2023-01-26T11:38:16.379Z,5.50
2023-01-26T11:40:48.491Z,5.60
2023-01-26T11:43:40.416Z,5.60
2023-01-26T11:46:28.782Z,5.60
2023-01-26T11:49:17.018Z,5.60
2023-01-26T11:52:11.385Z,5.70
2023-01-26T11:55:23.289Z,5.70
2023-01-26T11:58:05.494Z,5.80
2023-01-26T12:00:55.105Z,5.90
2023-01-26T12:03:44.223Z,5.90
2023-01-26T12:06:19.084Z,6.00
2023-01-26T12:09:21.533Z,6.00
2023-01-26T12:12:05.338Z,6.00
2023-01-26T12:15:08.072Z,5.90
2023-01-26T12:18:21.446Z,6.00
2023-01-26T12:20:55.482Z,6.00
2023-01-26T12:23:38.483Z,5.90
2023-01-26T12:26:13.732Z,6.00
2023-01-26T12:28:49.956Z,6.00
2023-01-26T12:35:49.235Z,6.00
2023-01-26T12:38:30.847Z,6.10
2023-01-26T12:41:38.805Z,6.10
2023-01-26T12:44:25.719Z,6.10
2023-01-26T12:46:58.174Z,6.20
2023-01-26T12:49:43.395Z,6.20
2023-01-26T12:52:33.915Z,6.20
2023-01-26T12:55:18.639Z,6.30
2023-01-26T12:57:54.679Z,6.30
2023-01-26T13:00:26.041Z,6.30
2023-01-26T13:03:03.612Z,6.30
2023-01-26T13:05:36.370Z,6.20
2023-01-26T13:08:32.860Z,6.20
2023-01-26T13:11:11.004Z,6.10
2023-01-26T13:13:57.844Z,6.10
2023-01-26T13:19:03.555Z,6.10
2023-01-26T13:21:40.625Z,6.10
2023-01-26T13:24:17.105Z,6.10
2023-01-26T13:26:56.981Z,6.10
2023-01-26T13:29:32.176Z,6.10
2023-01-26T13:32:09.870Z,6.20
2023-01-26T13:34:39.063Z,6.20
2023-01-26T13:37:19.197Z,6.30
2023-01-26T13:39:54.768Z,6.30
2023-01-26T13:42:49.973Z,6.40
2023-01-26T13:45:34.294Z,6.40
2023-01-26T13:48:05.635Z,6.50
2023-01-26T13:50:38.668Z,6.50
2023-01-26T13:53:41.561Z,6.60
2023-01-26T13:56:25.715Z,6.60
2023-01-26T13:58:53.939Z,6.60
2023-01-26T14:01:21.597Z,6.60
2023-01-26T14:03:49.001Z,6.60
2023-01-26T14:06:20.970Z,6.60
2023-01-26T14:08:56.668Z,6.60
2023-01-26T14:11:26.708Z,6.70
2023-01-26T14:13:56.701Z,6.70
2023-01-26T14:16:37.706Z,6.70
2023-01-26T14:19:19.366Z,6.80
2023-01-26T14:21:51.072Z,6.80
2023-01-26T14:24:24.746Z,6.80
2023-01-26T14:26:52.250Z,6.80
2023-01-26T14:29:23.262Z,6.80
2023-01-26T14:31:52.591Z,6.80
2023-01-26T14:34:24.663Z,6.80
2023-01-26T14:37:14.097Z,6.80
2023-01-26T14:39:45.035Z,6.80
2023-01-26T14:42:19.070Z,6.80
2023-01-26T14:44:46.676Z,6.70
2023-01-26T14:47:19.740Z,6.70
2023-01-26T14:50:01.040Z,6.60
2023-01-26T14:52:32.128Z,6.60
2023-01-26T14:55:06.404Z,6.70
2023-01-26T14:57:33.946Z,6.70
2023-01-26T15:00:02.408Z,6.70
2023-01-26T15:02:39.158Z,6.70
2023-01-26T15:05:19.296Z,6.70
2023-01-26T15:07:59.965Z,6.70
2023-01-26T15:10:30.038Z,6.70
2023-01-26T15:13:00.003Z,6.70
2023-01-26T15:15:29.703Z,6.60
2023-01-26T15:18:07.188Z,6.50
2023-01-26T15:20:34.688Z,6.50
2023-01-26T15:23:02.051Z,6.50
2023-01-26T15:25:32.028Z,6.40
2023-01-26T15:28:01.503Z,6.40
2023-01-26T15:30:37.881Z,6.30
2023-01-26T15:33:05.346Z,6.30
2023-01-26T15:35:57.337Z,6.30
2023-01-26T15:38:24.554Z,6.30
2023-01-26T15:40:51.723Z,6.30
2023-01-26T15:43:20.384Z,6.20
2023-01-26T15:45:51.831Z,6.20
2023-01-26T15:48:19.942Z,6.20
2023-01-26T15:50:48.293Z,6.20
2023-01-26T15:53:20.545Z,6.20
2023-01-26T15:55:58.763Z,6.20
2023-01-26T15:58:26.210Z,6.20
2023-01-26T16:00:53.710Z,6.20
2023-01-26T16:03:22.464Z,6.20
2023-01-26T16:05:49.948Z,6.20
2023-01-26T16:08:18.091Z,6.10
2023-01-26T16:10:46.160Z,6.10
2023-01-26T16:13:17.956Z,6.10
2023-01-26T16:15:49.875Z,6.00
2023-01-26T16:18:17.695Z,6.00
2023-01-26T16:20:46.944Z,6.00
2023-01-26T16:23:23.867Z,6.00
2023-01-26T16:25:51.552Z,5.90
2023-01-26T16:28:19.297Z,5.90
2023-01-26T16:30:48.143Z,5.90
2023-01-26T16:33:18.403Z,5.80
2023-01-26T16:35:45.513Z,5.80
2023-01-26T16:38:15.431Z,5.80
2023-01-26T16:40:45.244Z,5.70
2023-01-26T16:43:22.665Z,5.70
2023-01-26T16:45:53.805Z,5.60
2023-01-26T16:48:35.432Z,5.60
2023-01-26T16:51:31.449Z,5.50
2023-01-26T16:53:59.051Z,5.50
2023-01-26T16:56:28.409Z,5.50
2023-01-26T16:58:55.512Z,5.40
2023-01-26T17:01:28.512Z,5.40
2023-01-26T17:03:56.645Z,5.40
2023-01-26T17:06:26.223Z,5.40
2023-01-26T17:08:53.682Z,5.40
2023-01-26T17:11:27.965Z,5.40
2023-01-26T17:13:56.771Z,5.40
2023-01-26T17:16:29.598Z,5.30
2023-01-26T17:18:57.145Z,5.30
2023-01-26T17:21:26.553Z,5.30
2023-01-26T17:23:55.696Z,5.30
2023-01-26T17:26:23.769Z,5.20
2023-01-26T17:28:54.755Z,5.20
2023-01-26T17:31:23.555Z,5.20
2023-01-26T17:33:51.824Z,5.20
2023-01-26T17:36:20.289Z,5.20
2023-01-26T17:38:48.596Z,5.20
2023-01-26T17:41:16.531Z,5.20
2023-01-26T17:43:43.828Z,5.20
2023-01-26T17:46:16.940Z,5.20
2023-01-26T17:48:45.525Z,5.20
2023-01-26T17:51:19.074Z,5.20
2023-01-26T17:53:50.048Z,5.20
2023-01-26T17:56:19.893Z,5.20
2023-01-26T17:58:52.304Z,5.20
2023-01-26T18:01:21.170Z,5.20
2023-01-26T18:03:48.595Z,5.10
2023-01-26T18:06:15.866Z,5.10
2023-01-26T18:08:43.326Z,5.10
2023-01-26T18:11:13.197Z,5.00
2023-01-26T18:13:40.741Z,5.00
2023-01-26T18:16:09.873Z,5.00
2023-01-26T18:18:37.095Z,5.00
2023-01-26T18:21:22.796Z,5.00
2023-01-26T18:23:59.692Z,5.00
2023-01-26T18:26:29.477Z,5.00
2023-01-26T18:28:56.701Z,5.00
2023-01-26T18:31:30.106Z,5.00
2023-01-26T18:33:59.351Z,5.00
2023-01-26T18:36:27.625Z,5.00
2023-01-26T18:38:58.255Z,5.00
2023-01-26T18:41:27.212Z,4.90
2023-01-26T18:43:55.627Z,4.90
2023-01-26T18:46:23.454Z,4.90
2023-01-26T18:48:53.960Z,4.90
2023-01-26T18:51:22.801Z,4.90
2023-01-26T18:53:50.073Z,4.80
2023-01-26T18:56:17.964Z,4.80
2023-01-26T18:58:47.626Z,4.80
2023-01-26T19:01:16.290Z,4.80
2023-01-26T19:03:47.635Z,4.70
2023-01-26T19:06:18.451Z,4.70
2023-01-26T19:08:47.322Z,4.70
2023-01-26T19:11:15.390Z,4.70
2023-01-26T19:13:44.244Z,4.60
2023-01-26T19:16:11.501Z,4.60
2023-01-26T19:18:38.688Z,4.60
2023-01-26T19:21:06.014Z,4.60
2023-01-26T19:23:34.203Z,4.60
2023-01-26T19:26:01.389Z,4.60
2023-01-26T19:28:28.562Z,4.60
2023-01-26T19:31:03.486Z,4.60
2023-01-26T19:33:31.795Z,4.60
2023-01-26T19:36:01.658Z,4.60
2023-01-26T19:38:28.859Z,4.60
2023-01-26T19:40:56.043Z,4.60
2023-01-26T19:43:23.945Z,4.70
2023-01-26T19:45:56.488Z,4.60
2023-01-26T19:48:25.776Z,4.60
2023-01-26T19:51:02.908Z,4.60
2023-01-26T19:53:31.867Z,4.50
2023-01-26T19:56:02.019Z,4.50
2023-01-26T19:58:29.467Z,4.50
2023-01-26T20:01:06.708Z,4.50
2023-01-26T20:03:34.812Z,4.50
2023-01-26T20:06:02.345Z,4.50
2023-01-26T20:08:30.194Z,4.50
2023-01-26T20:11:08.479Z,4.40
2023-01-26T20:13:37.029Z,4.40
2023-01-26T20:16:06.968Z,4.50
2023-01-26T20:18:35.549Z,4.40
2023-01-26T20:21:03.593Z,4.40
2023-01-26T20:23:30.908Z,4.40
2023-01-26T20:26:04.685Z,4.40
2023-01-26T20:28:32.329Z,4.40
2023-01-26T20:31:05.944Z,4.40
2023-01-26T20:33:33.867Z,4.40
2023-01-26T20:36:04.719Z,4.40
2023-01-26T20:38:32.280Z,4.40
2023-01-26T20:40:59.490Z,4.50
2023-01-26T20:43:26.747Z,4.50
2023-01-26T20:45:53.952Z,4.50
2023-01-26T20:48:21.625Z,4.50
2023-01-26T20:50:48.738Z,4.50
2023-01-26T20:53:16.115Z,4.50
2023-01-26T20:55:43.263Z,4.50
2023-01-26T20:58:10.678Z,4.50
2023-01-26T21:00:38.297Z,4.50
2023-01-26T21:03:05.798Z,4.60
2023-01-26T21:05:32.934Z,4.60
2023-01-26T21:08:00.224Z,4.60
2023-01-26T21:10:27.390Z,4.60
2023-01-26T21:12:55.442Z,4.60
2023-01-26T21:15:22.642Z,4.60
2023-01-26T21:17:49.804Z,4.60
2023-01-26T21:20:17.104Z,4.70
2023-01-26T21:22:44.482Z,4.70
2023-01-26T21:25:12.397Z,4.70
2023-01-26T21:27:39.513Z,4.60
2023-01-26T21:30:07.478Z,4.60
2023-01-26T21:32:34.778Z,4.60
2023-01-26T21:35:02.043Z,4.50
2023-01-26T21:37:29.158Z,4.50
2023-01-26T21:39:56.286Z,4.50
2023-01-26T21:42:23.471Z,4.50
2023-01-26T21:45:22.835Z,4.50
2023-01-26T21:48:10.023Z,4.50
2023-01-26T21:50:56.151Z,4.40
2023-01-26T21:53:23.600Z,4.40
2023-01-26T21:55:50.750Z,4.30
2023-01-26T21:58:36.177Z,4.30
2023-01-26T22:01:10.339Z,4.20
2023-01-26T22:03:37.804Z,4.20
2023-01-26T22:06:05.645Z,4.10
2023-01-26T22:08:33.282Z,4.10
2023-01-26T22:11:00.483Z,4.00
2023-01-26T22:13:27.861Z,4.00
2023-01-26T22:15:55.450Z,4.00
2023-01-26T22:18:22.872Z,3.90
2023-01-26T22:20:50.003Z,3.90
2023-01-26T22:23:17.069Z,3.90
2023-01-26T22:25:44.720Z,3.90
2023-01-26T22:28:11.757Z,3.80
2023-01-26T22:30:39.606Z,3.80
2023-01-26T22:33:06.930Z,3.80
2023-01-26T22:35:34.085Z,3.80
2023-01-26T22:38:01.202Z,3.80
2023-01-26T22:40:28.406Z,3.70
2023-01-26T22:42:55.580Z,3.80
2023-01-26T22:45:22.707Z,3.70
2023-01-26T22:47:50.459Z,3.70
2023-01-26T22:50:18.032Z,3.70
2023-01-26T22:52:45.137Z,3.70
2023-01-26T22:55:13.076Z,3.80
2023-01-26T22:57:40.173Z,3.80
2023-01-26T23:00:08.254Z,3.80
2023-01-26T23:02:35.473Z,3.70
2023-01-26T23:05:02.680Z,3.70
2023-01-26T23:07:29.835Z,3.70
2023-01-26T23:09:56.973Z,3.70
2023-01-26T23:12:24.330Z,3.70
2023-01-26T23:14:51.678Z,3.70
2023-01-26T23:17:18.870Z,3.70
2023-01-26T23:19:46.022Z,3.70
2023-01-26T23:22:13.169Z,3.70
2023-01-26T23:24:40.443Z,3.70
2023-01-26T23:27:07.619Z,3.60
2023-01-26T23:29:34.730Z,3.60
2023-01-26T23:32:02.071Z,3.60
2023-01-26T23:34:29.268Z,3.60
2023-01-26T23:36:56.350Z,3.60
2023-01-26T23:39:23.434Z,3.60
2023-01-26T23:41:50.632Z,3.70
2023-01-26T23:44:17.806Z,3.70
2023-01-26T23:46:45.130Z,3.70
2023-01-26T23:49:12.396Z,3.80
2023-01-26T23:51:39.518Z,3.80
2023-01-26T23:54:06.687Z,3.90
2023-01-26T23:56:33.837Z,3.90
2023-01-26T23:59:00.950Z,3.90
